createdAt,value
2022-10-09T00:03:45.967Z,90.20
2022-10-09T00:09:17.670Z,91.74
2022-10-09T00:14:49.404Z,91.54
2022-10-09T00:20:21.053Z,92.32
2022-10-09T00:25:52.939Z,92.92
2022-10-09T00:31:24.581Z,92.81
2022-10-09T00:42:26.097Z,92.22
2022-10-09T00:47:57.473Z,92.22
2022-10-09T00:53:29.341Z,92.24
2022-10-09T00:59:00.772Z,92.66
2022-10-09T01:04:32.349Z,92.35
2022-10-09T01:10:03.957Z,92.72
2022-10-09T01:21:05.048Z,93.76
2022-10-09T01:26:36.624Z,93.51
2022-10-09T01:32:08.368Z,93.55
2022-10-09T01:37:40.115Z,93.76
2022-10-09T01:43:11.770Z,93.50
2022-10-09T01:48:43.392Z,93.51
2022-10-09T01:54:15.293Z,93.45
2022-10-09T01:59:47.039Z,93.31
2022-10-09T02:05:18.961Z,93.25
2022-10-09T02:10:51.151Z,93.00
2022-10-09T02:16:22.880Z,92.84
2022-10-09T02:21:54.724Z,93.04
2022-10-09T02:32:55.060Z,93.00
2022-10-09T02:43:56.425Z,93.60
2022-10-09T02:49:28.257Z,94.03
2022-10-09T02:54:59.921Z,94.08
2022-10-09T03:11:30.708Z,94.32
2022-10-09T03:17:02.404Z,94.78
2022-10-09T03:22:34.055Z,95.00
2022-10-09T03:28:06.018Z,94.12
2022-10-09T03:33:37.661Z,94.28
2022-10-09T03:39:09.424Z,94.03
2022-10-09T03:44:41.173Z,95.01
2022-10-09T03:50:12.951Z,94.94
2022-10-09T03:55:46.535Z,94.70
2022-10-09T04:06:47.906Z,95.02
2022-10-09T04:12:20.020Z,95.53
2022-10-09T04:17:51.622Z,95.57
2022-10-09T04:23:23.400Z,95.68
2022-10-09T04:28:55.371Z,95.40
2022-10-09T04:34:27.156Z,95.40
2022-10-09T04:39:59.067Z,94.96
2022-10-09T04:45:31.597Z,95.80
2022-10-09T05:02:02.340Z,95.97
2022-10-09T05:07:33.981Z,96.08
2022-10-09T05:13:06.083Z,95.66
2022-10-09T05:24:10.379Z,96.21
2022-10-09T05:35:09.384Z,96.38
2022-10-09T05:40:41.136Z,96.41
2022-10-09T05:46:12.902Z,96.58
2022-10-09T05:51:44.547Z,96.50
2022-10-09T05:57:16.469Z,96.76
2022-10-09T06:02:48.306Z,96.91
2022-10-09T06:08:19.901Z,97.07
2022-10-09T06:13:51.948Z,96.99
2022-10-09T06:19:23.871Z,97.05
2022-10-09T06:24:55.567Z,97.03
2022-10-09T06:30:27.391Z,96.96
2022-10-09T06:36:08.536Z,96.83
2022-10-09T06:41:30.907Z,96.63
2022-10-09T06:47:02.500Z,96.59
2022-10-09T06:52:34.533Z,96.11
2022-10-09T06:58:06.193Z,95.64
2022-10-09T07:03:37.925Z,95.21
2022-10-09T07:09:10.012Z,94.67
2022-10-09T07:14:41.739Z,94.35
2022-10-09T07:20:13.589Z,94.30
2022-10-09T07:22:27.144Z,93.85
2022-10-09T07:27:56.853Z,94.10
2022-10-09T07:38:58.071Z,93.81
2022-10-09T07:44:29.862Z,92.49
2022-10-09T07:50:01.683Z,93.01
2022-10-09T07:55:33.566Z,93.25
2022-10-09T08:01:05.310Z,92.82
2022-10-09T08:06:37.128Z,91.76
2022-10-09T08:17:39.820Z,91.51
2022-10-09T08:23:11.637Z,90.59
2022-10-09T08:28:43.654Z,90.33
2022-10-09T08:34:15.301Z,90.21
2022-10-09T08:39:46.716Z,89.61
2022-10-09T08:45:18.444Z,88.92
2022-10-09T08:50:49.915Z,88.84
2022-10-09T08:56:21.704Z,88.59
2022-10-09T09:01:53.192Z,88.62
2022-10-09T09:07:24.958Z,88.40
2022-10-09T09:12:56.912Z,87.74
2022-10-09T09:18:28.919Z,88.62
2022-10-09T09:24:00.446Z,87.50
2022-10-09T09:29:31.874Z,87.07
2022-10-09T09:35:03.486Z,86.91
2022-10-09T09:40:37.123Z,86.58
2022-10-09T09:46:06.960Z,85.46
2022-10-09T09:48:31.018Z,85.46
2022-10-09T09:54:02.314Z,85.32
2022-10-09T09:59:33.832Z,83.95
2022-10-09T10:05:05.729Z,82.46
2022-10-09T10:10:37.381Z,81.78
2022-10-09T10:16:08.884Z,82.09
2022-10-09T10:21:40.708Z,81.14
2022-10-09T10:27:12.518Z,80.07
2022-10-09T10:32:44.259Z,79.49
2022-10-09T10:38:16.113Z,78.56
2022-10-09T10:43:47.884Z,78.12
2022-10-09T10:49:19.662Z,77.87
2022-10-09T10:54:51.477Z,77.11
2022-10-09T11:00:23.281Z,75.50
2022-10-09T11:05:55.087Z,75.12
2022-10-09T11:16:56.304Z,75.07
2022-10-09T11:22:28.132Z,74.45
2022-10-09T11:28:00.213Z,74.74
2022-10-09T11:33:31.769Z,74.44
2022-10-09T11:39:03.187Z,73.78
2022-10-09T11:44:34.987Z,74.04
2022-10-09T11:50:06.490Z,73.38
2022-10-09T11:52:30.495Z,72.98
2022-10-09T11:58:01.948Z,73.33
2022-10-09T12:03:33.693Z,73.93
2022-10-09T12:09:05.264Z,73.76
2022-10-09T12:14:37.063Z,73.49
2022-10-09T12:20:08.907Z,73.76
2022-10-09T12:25:40.642Z,73.75
2022-10-09T12:31:12.710Z,73.05
2022-10-09T12:36:44.189Z,73.33
2022-10-09T12:42:15.451Z,73.17
2022-10-09T12:47:46.691Z,72.53
2022-10-09T12:58:47.679Z,72.84
2022-10-09T13:04:19.491Z,72.89
2022-10-09T13:09:50.935Z,72.76
2022-10-09T13:15:22.352Z,71.10
2022-10-09T13:20:54.125Z,72.48
2022-10-09T13:26:25.742Z,72.92
2022-10-09T13:31:57.314Z,71.84
2022-10-09T13:37:29.083Z,72.43
2022-10-09T13:43:00.905Z,72.46
2022-10-09T13:48:32.673Z,71.62
2022-10-09T13:54:04.616Z,72.46
2022-10-09T13:59:36.081Z,73.58
2022-10-09T14:05:07.691Z,74.04
2022-10-09T14:10:39.306Z,74.19
2022-10-09T14:16:11.943Z,72.70
2022-10-09T14:21:43.681Z,73.96
2022-10-09T14:27:15.443Z,74.32
2022-10-09T14:32:49.505Z,73.88
2022-10-09T14:38:20.713Z,74.33
2022-10-09T14:43:52.168Z,74.73
2022-10-09T14:49:23.953Z,75.37
2022-10-09T14:54:55.554Z,74.13
2022-10-09T15:00:26.735Z,75.77
2022-10-09T15:05:58.224Z,75.36
2022-10-09T15:11:30.082Z,75.02
2022-10-09T15:17:01.837Z,75.44
2022-10-09T15:22:32.977Z,75.48
2022-10-09T15:28:04.421Z,75.04
2022-10-09T15:33:35.860Z,74.48
2022-10-09T15:39:07.525Z,75.71
2022-10-09T15:44:38.867Z,76.18
2022-10-09T15:50:10.674Z,76.44
2022-10-09T15:55:42.499Z,76.10
2022-10-09T16:01:14.410Z,75.76
2022-10-09T16:06:45.680Z,75.47
2022-10-09T16:12:17.094Z,74.94
2022-10-09T16:17:48.993Z,74.94
2022-10-09T16:23:20.814Z,75.62
2022-10-09T16:28:52.453Z,75.92
2022-10-09T16:34:24.452Z,76.37
2022-10-09T16:39:55.746Z,76.56
2022-10-09T16:50:58.858Z,76.71
2022-10-09T16:56:30.615Z,76.95
2022-10-09T17:02:02.361Z,77.12
2022-10-09T17:07:33.979Z,76.76
2022-10-09T17:13:05.446Z,76.10
2022-10-09T17:18:37.239Z,76.19
2022-10-09T17:24:09.094Z,76.62
2022-10-09T17:29:40.835Z,77.37
2022-10-09T17:35:12.604Z,77.33
2022-10-09T17:40:44.152Z,77.52
2022-10-09T17:46:15.447Z,78.39
2022-10-09T17:51:46.795Z,78.40
2022-10-09T17:57:18.262Z,78.09
2022-10-09T18:02:49.659Z,78.80
2022-10-09T18:08:21.558Z,78.55
2022-10-09T18:13:53.313Z,78.94
2022-10-09T18:19:24.924Z,80.12
2022-10-09T18:24:56.716Z,80.71
2022-10-09T18:30:28.301Z,81.64
2022-10-09T18:35:59.968Z,81.72
2022-10-09T18:41:32.430Z,82.17
2022-10-09T18:49:25.512Z,81.22
2022-10-09T18:54:57.371Z,81.33
2022-10-09T19:00:28.862Z,81.65
2022-10-09T19:06:00.403Z,81.55
2022-10-09T19:11:32.152Z,81.27
2022-10-09T19:17:03.531Z,80.98
2022-10-09T19:22:35.044Z,82.07
2022-10-09T19:28:06.930Z,82.40
2022-10-09T19:33:38.382Z,81.93
2022-10-09T19:39:09.759Z,82.64
2022-10-09T19:44:41.228Z,82.88
2022-10-09T19:50:13.125Z,83.32
2022-10-09T19:55:44.554Z,82.85
2022-10-09T20:01:15.880Z,82.94
2022-10-09T20:06:47.477Z,83.44
2022-10-09T20:17:49.486Z,83.92
2022-10-09T20:23:20.699Z,82.84
2022-10-09T20:28:52.315Z,83.15
2022-10-09T20:39:52.802Z,82.93
2022-10-09T20:45:24.211Z,82.81
2022-10-09T20:50:55.562Z,83.46
2022-10-09T20:56:26.802Z,83.66
2022-10-09T21:01:58.229Z,83.77
2022-10-09T21:07:29.365Z,83.73
2022-10-09T21:13:00.804Z,83.81
2022-10-09T21:18:32.422Z,83.86
2022-10-09T21:24:03.642Z,82.87
2022-10-09T21:29:34.946Z,83.41
2022-10-09T21:35:06.231Z,83.98
2022-10-09T21:40:37.604Z,83.97
2022-10-09T21:46:08.859Z,84.63
2022-10-09T21:51:40.276Z,85.31
2022-10-09T21:57:11.980Z,84.93
2022-10-09T22:02:43.182Z,84.80
2022-10-09T22:08:14.348Z,83.93
2022-10-09T22:13:45.721Z,84.54
2022-10-09T22:19:17.113Z,84.75
2022-10-09T22:24:48.687Z,85.40
2022-10-09T22:30:20.001Z,85.39
2022-10-09T22:41:21.057Z,85.87
2022-10-09T22:46:52.743Z,86.13
2022-10-09T22:52:24.108Z,86.31
2022-10-09T22:57:55.378Z,87.82
2022-10-09T23:03:27.057Z,87.40
2022-10-09T23:14:28.116Z,87.19
2022-10-09T23:19:59.848Z,87.09
2022-10-09T23:25:31.421Z,87.03
2022-10-09T23:31:02.679Z,87.30
2022-10-09T23:36:34.183Z,87.33
2022-10-09T23:38:57.630Z,87.32
2022-10-09T23:44:29.084Z,87.99
2022-10-09T23:50:00.954Z,87.99
2022-10-09T23:55:32.988Z,88.27
